Terminal Aerodrome Forecast
Issued by NWS Pueblo, CO

Home | Current Version | Previous Version | Text Only | Print | Product List | Glossary On
Versions: 1 2 3 4 5 6 7 8 9 10 11 12 13 14 15 16 17 18 19 20 21 22 23 24 25 26 27 28 29 30 31 32
000
FTUS45 KPUB 180259 AAA
TAFCOS
TAF AMD
KCOS 180259Z 1803/1824 VRB06KT P6SM VCSH SCT020 OVC040
      TEMPO 1803/1805 5SM -SHSN SCT010 OVC020
     FM180600 35006KT P6SM SCT030 BKN060
     FM181600 14008KT P6SM BKN030
     FM182000 16010KT P6SM SCT030 SCT090=

USA.gov is the U.S. government's official web portal to all federal, state and local government web resources and services.